createdAt,value
2022-08-03T00:01:49.183Z,19.24
2022-08-03T00:04:16.905Z,19.26
2022-08-03T00:06:44.579Z,19.26
2022-08-03T00:09:12.590Z,19.30
2022-08-03T00:11:40.195Z,19.30
2022-08-03T00:14:09.070Z,19.31
2022-08-03T00:16:36.713Z,19.27
2022-08-03T00:19:04.645Z,19.26
2022-08-03T00:21:32.086Z,19.29
2022-08-03T00:24:00.331Z,19.28
2022-08-03T00:26:27.740Z,19.30
2022-08-03T00:28:55.324Z,19.39
2022-08-03T00:31:32.217Z,19.49
2022-08-03T00:34:10.310Z,19.53
2022-08-03T00:36:40.297Z,19.48
2022-08-03T00:39:07.733Z,19.54
2022-08-03T00:41:35.193Z,19.53
2022-08-03T00:44:02.648Z,19.55
2022-08-03T00:46:30.065Z,19.59
2022-08-03T00:48:57.628Z,19.63
2022-08-03T00:51:25.759Z,19.67
2022-08-03T00:53:53.234Z,19.67
2022-08-03T00:56:20.773Z,19.67
2022-08-03T00:58:48.317Z,19.73
2022-08-03T01:01:15.867Z,19.75
2022-08-03T01:03:45.280Z,19.79
2022-08-03T01:06:41.282Z,20.10
2022-08-03T01:09:21.130Z,20.10
2022-08-03T01:12:00.643Z,20.08
2022-08-03T01:14:49.423Z,20.13
2022-08-03T01:17:37.217Z,20.12
2022-08-03T01:20:09.769Z,20.20
2022-08-03T01:22:58.661Z,20.39
2022-08-03T01:25:54.731Z,20.33
2022-08-03T01:28:49.425Z,20.41
2022-08-03T01:31:22.808Z,20.32
2022-08-03T01:33:58.151Z,20.43
2022-08-03T01:36:34.181Z,20.40
2022-08-03T01:39:09.679Z,20.45
2022-08-03T01:41:44.800Z,20.52
2022-08-03T01:44:30.155Z,20.46
2022-08-03T01:47:00.803Z,20.58
2022-08-03T01:49:30.682Z,20.54
2022-08-03T01:52:04.858Z,20.59
2022-08-03T01:54:38.417Z,20.66
2022-08-03T01:57:07.400Z,20.60
2022-08-03T01:59:37.123Z,20.66
2022-08-03T02:02:15.485Z,20.71
2022-08-03T02:04:57.914Z,20.82
2022-08-03T02:07:27.265Z,20.73
2022-08-03T02:09:56.183Z,20.70
2022-08-03T02:12:29.020Z,20.81
2022-08-03T02:15:18.313Z,20.79
2022-08-03T02:17:47.988Z,20.83
2022-08-03T02:20:16.593Z,20.85
2022-08-03T02:22:45.743Z,20.99
2022-08-03T02:25:14.967Z,21.00
2022-08-03T02:27:55.589Z,21.25
2022-08-03T02:30:30.556Z,21.20
2022-08-03T02:32:59.770Z,21.24
2022-08-03T02:35:29.981Z,21.27
2022-08-03T02:38:02.784Z,21.39
2022-08-03T02:40:31.714Z,21.47
2022-08-03T02:43:15.876Z,21.69
2022-08-03T02:45:46.246Z,21.67
2022-08-03T02:48:18.194Z,21.80
2022-08-03T02:50:47.870Z,21.82
2022-08-03T02:53:18.042Z,21.99
2022-08-03T02:55:48.078Z,22.59
2022-08-03T02:58:18.971Z,23.65
2022-08-03T03:00:47.484Z,24.81
2022-08-03T03:03:16.173Z,25.79
2022-08-03T03:05:52.939Z,26.72
2022-08-03T03:08:28.608Z,27.66
2022-08-03T03:11:00.059Z,28.34
2022-08-03T03:13:32.701Z,29.05
2022-08-03T03:16:06.426Z,29.66
2022-08-03T03:18:35.394Z,30.37
2022-08-03T03:21:04.394Z,31.06
2022-08-03T03:23:35.917Z,31.64
2022-08-03T03:26:04.439Z,32.19
2022-08-03T03:28:33.239Z,32.47
2022-08-03T03:31:01.321Z,33.08
2022-08-03T03:33:28.878Z,33.53
2022-08-03T03:35:57.977Z,33.94
2022-08-03T03:38:25.577Z,34.43
2022-08-03T03:40:53.205Z,34.88
2022-08-03T03:43:20.780Z,35.33
2022-08-03T03:45:48.495Z,35.62
2022-08-03T03:48:16.606Z,36.10
2022-08-03T03:50:44.573Z,36.51
2022-08-03T03:53:13.979Z,36.79
2022-08-03T03:55:59.317Z,37.25
2022-08-03T03:58:32.234Z,37.67
2022-08-03T04:01:00.769Z,37.97
2022-08-03T04:03:28.787Z,38.29
2022-08-03T04:06:15.570Z,38.58
2022-08-03T04:09:01.546Z,38.82
2022-08-03T04:11:48.042Z,38.70
2022-08-03T04:14:21.162Z,39.39
2022-08-03T04:16:58.294Z,39.48
2022-08-03T04:19:32.785Z,39.94
2022-08-03T04:22:03.854Z,40.19
2022-08-03T04:24:35.587Z,40.46
2022-08-03T04:27:07.085Z,40.76
2022-08-03T04:29:38.512Z,40.95
2022-08-03T04:32:12.842Z,41.33
2022-08-03T04:34:41.082Z,41.53
2022-08-03T04:37:15.216Z,41.63
2022-08-03T04:39:44.872Z,41.87
2022-08-03T04:42:14.396Z,42.07
2022-08-03T04:44:45.549Z,42.17
2022-08-03T04:47:13.013Z,42.37
2022-08-03T04:49:40.993Z,42.43
2022-08-03T04:52:10.391Z,42.60
2022-08-03T04:54:50.295Z,42.67
2022-08-03T04:57:23.045Z,43.15
2022-08-03T05:00:01.362Z,42.93
2022-08-03T05:02:33.805Z,43.26
2022-08-03T05:05:01.363Z,43.36
2022-08-03T05:07:35.459Z,43.53
2022-08-03T05:10:14.760Z,43.57
2022-08-03T05:12:45.863Z,43.89
2022-08-03T05:15:13.527Z,44.09
2022-08-03T05:17:41.086Z,44.27
2022-08-03T05:20:09.129Z,44.36
2022-08-03T05:22:36.624Z,44.54
2022-08-03T05:25:04.405Z,44.52
2022-08-03T05:27:31.910Z,44.12
2022-08-03T05:30:30.360Z,43.84
2022-08-03T05:32:46.865Z,43.96
2022-08-03T05:35:57.301Z,44.00
2022-08-03T05:38:03.689Z,44.16
2022-08-03T05:40:31.440Z,44.33
2022-08-03T05:42:59.323Z,44.39
2022-08-03T05:45:28.528Z,44.57
2022-08-03T05:47:56.317Z,44.60
2022-08-03T05:50:24.057Z,44.73
2022-08-03T05:52:51.479Z,44.91
2022-08-03T05:55:19.326Z,44.89
2022-08-03T05:57:47.390Z,44.65
2022-08-03T06:00:17.394Z,44.43
2022-08-03T06:02:46.558Z,44.54
2022-08-03T06:05:14.108Z,44.63
2022-08-03T06:07:41.669Z,44.86
2022-08-03T06:10:36.658Z,44.95
2022-08-03T06:12:57.146Z,45.15
2022-08-03T06:15:24.845Z,45.06
2022-08-03T06:17:52.733Z,44.96
2022-08-03T06:20:21.179Z,44.45
2022-08-03T06:22:51.379Z,44.34
2022-08-03T06:25:28.091Z,44.08
2022-08-03T06:27:55.479Z,44.25
2022-08-03T06:30:23.003Z,44.29
2022-08-03T06:32:51.695Z,44.56
2022-08-03T06:35:20.383Z,44.53
2022-08-03T06:37:50.130Z,44.68
2022-08-03T06:40:24.318Z,44.80
2022-08-03T06:42:52.126Z,45.09
2022-08-03T06:45:19.633Z,45.18
2022-08-03T06:47:47.065Z,45.18
2022-08-03T06:50:16.877Z,45.12
2022-08-03T06:52:45.638Z,45.03
2022-08-03T06:55:13.141Z,45.13
2022-08-03T06:57:40.558Z,44.87
2022-08-03T07:00:12.187Z,45.05
2022-08-03T07:02:40.254Z,44.42
2022-08-03T07:05:09.733Z,44.80
2022-08-03T07:07:37.499Z,44.95
2022-08-03T07:10:06.488Z,45.12
2022-08-03T07:12:34.988Z,45.25
2022-08-03T07:15:04.177Z,45.34
2022-08-03T07:17:34.927Z,45.13
2022-08-03T07:20:05.243Z,45.26
2022-08-03T07:22:33.035Z,45.18
2022-08-03T07:25:00.803Z,45.13
2022-08-03T07:27:29.575Z,44.96
2022-08-03T07:30:00.031Z,44.79
2022-08-03T07:32:28.845Z,44.71
2022-08-03T07:35:00.490Z,44.50
2022-08-03T07:37:29.431Z,44.22
2022-08-03T07:39:57.088Z,43.80
2022-08-03T07:42:24.574Z,42.70
2022-08-03T07:44:51.953Z,41.51
2022-08-03T07:47:25.329Z,41.13
2022-08-03T07:50:02.578Z,40.53
2022-08-03T07:52:48.460Z,40.36
2022-08-03T07:55:17.359Z,40.24
2022-08-03T07:57:45.164Z,40.08
2022-08-03T08:00:18.656Z,40.18
2022-08-03T08:02:46.648Z,39.97
2022-08-03T08:05:14.177Z,39.82
2022-08-03T08:07:41.709Z,39.65
2022-08-03T08:10:10.443Z,39.39
2022-08-03T08:12:41.023Z,39.06
2022-08-03T08:15:09.974Z,38.16
2022-08-03T08:17:55.844Z,38.11
2022-08-03T08:20:31.797Z,37.23
2022-08-03T08:23:02.733Z,37.36
2022-08-03T08:25:31.978Z,37.44
2022-08-03T08:28:29.785Z,36.97
2022-08-03T08:30:51.986Z,36.20
2022-08-03T08:33:22.606Z,35.52
2022-08-03T08:35:50.400Z,35.75
2022-08-03T08:38:17.771Z,35.96
2022-08-03T08:40:46.039Z,36.06
2022-08-03T08:43:13.521Z,36.04
2022-08-03T08:45:43.051Z,35.95
2022-08-03T08:48:13.406Z,35.34
2022-08-03T08:50:41.198Z,35.49
2022-08-03T08:53:18.325Z,35.81
2022-08-03T08:55:59.206Z,35.70
2022-08-03T08:58:37.085Z,35.93
2022-08-03T09:01:04.976Z,35.37
2022-08-03T09:03:34.656Z,35.04
2022-08-03T09:06:02.701Z,34.73
2022-08-03T09:08:32.023Z,34.61
2022-08-03T09:10:59.927Z,33.70
2022-08-03T09:13:27.537Z,33.16
2022-08-03T09:16:11.190Z,32.69
2022-08-03T09:18:39.265Z,32.50
2022-08-03T09:21:34.128Z,32.78
2022-08-03T09:24:05.685Z,32.35
2022-08-03T09:26:36.697Z,32.53
2022-08-03T09:29:13.236Z,32.45
2022-08-03T09:31:47.148Z,32.47
2022-08-03T09:34:16.147Z,32.87
2022-08-03T09:36:50.866Z,32.19
2022-08-03T09:39:40.467Z,31.87
2022-08-03T09:42:14.973Z,31.52
2022-08-03T09:44:45.477Z,31.51
2022-08-03T09:47:16.183Z,31.48
2022-08-03T09:49:57.805Z,31.66
2022-08-03T09:52:52.314Z,31.20
2022-08-03T09:56:34.480Z,30.70
2022-08-03T09:58:14.585Z,30.82
2022-08-03T10:01:04.448Z,31.03
2022-08-03T10:04:02.703Z,30.54
2022-08-03T10:06:28.952Z,30.31
2022-08-03T10:09:11.638Z,30.31
2022-08-03T10:11:42.028Z,29.95
2022-08-03T10:14:19.493Z,29.83
2022-08-03T10:16:48.815Z,29.62
2022-08-03T10:19:17.005Z,29.60
2022-08-03T10:21:50.872Z,29.43
2022-08-03T10:24:24.898Z,29.27
2022-08-03T10:26:54.320Z,29.08
2022-08-03T10:29:25.478Z,28.89
2022-08-03T10:31:58.432Z,28.70
2022-08-03T10:34:35.415Z,28.29
2022-08-03T10:37:08.683Z,27.97
2022-08-03T10:39:37.039Z,28.09
2022-08-03T10:42:06.098Z,28.11
2022-08-03T10:44:42.994Z,28.12
2022-08-03T10:47:11.597Z,28.25
2022-08-03T10:49:39.697Z,28.32
2022-08-03T10:52:13.114Z,28.32
2022-08-03T10:55:03.244Z,27.97
2022-08-03T10:57:58.496Z,28.22
2022-08-03T11:00:30.495Z,27.86
2022-08-03T11:03:14.396Z,28.24
2022-08-03T11:05:47.296Z,28.07
2022-08-03T11:08:37.094Z,28.03
2022-08-03T11:11:20.292Z,27.88
2022-08-03T11:14:05.721Z,27.90
2022-08-03T11:16:39.105Z,27.64
2022-08-03T11:19:11.210Z,27.35
2022-08-03T11:21:51.317Z,27.64
2022-08-03T11:24:37.092Z,27.65
2022-08-03T11:27:19.957Z,27.63
2022-08-03T11:30:07.454Z,27.75
2022-08-03T11:32:38.346Z,27.69
2022-08-03T11:35:26.238Z,27.96
2022-08-03T11:38:04.396Z,27.82
2022-08-03T11:40:48.840Z,27.66
2022-08-03T11:43:22.538Z,27.65
2022-08-03T11:46:03.346Z,27.22
2022-08-03T11:48:46.291Z,26.93
2022-08-03T11:51:25.678Z,26.81
2022-08-03T11:53:58.250Z,26.98
2022-08-03T11:56:26.250Z,27.02
2022-08-03T11:59:15.277Z,27.17
2022-08-03T12:01:46.291Z,27.21
2022-08-03T12:04:13.759Z,27.15
2022-08-03T12:06:56.323Z,27.07
2022-08-03T12:09:23.713Z,27.06
2022-08-03T12:11:59.383Z,27.09
2022-08-03T12:14:49.049Z,27.01
2022-08-03T12:17:17.704Z,26.90
2022-08-03T12:19:45.515Z,26.94
2022-08-03T12:22:13.813Z,26.98
2022-08-03T12:24:46.782Z,27.04
2022-08-03T12:27:25.017Z,27.12
2022-08-03T12:29:58.582Z,26.79
2022-08-03T12:32:28.594Z,26.64
2022-08-03T12:35:02.043Z,26.53
2022-08-03T12:37:32.275Z,26.52
2022-08-03T12:40:09.357Z,26.50
2022-08-03T12:42:40.179Z,26.46
2022-08-03T12:45:21.285Z,26.73
2022-08-03T12:47:56.163Z,26.75
2022-08-03T12:50:31.454Z,26.80
2022-08-03T12:53:01.215Z,26.70
2022-08-03T12:55:56.645Z,26.62
2022-08-03T12:58:43.720Z,26.79
2022-08-03T13:01:13.900Z,26.63
2022-08-03T13:03:50.361Z,26.74
2022-08-03T13:06:25.463Z,26.65
2022-08-03T13:09:04.805Z,26.87
2022-08-03T13:11:57.982Z,26.73
2022-08-03T13:14:20.632Z,26.78
2022-08-03T13:16:49.667Z,26.67
2022-08-03T13:19:21.145Z,26.59
2022-08-03T13:21:53.440Z,26.53
2022-08-03T13:24:32.305Z,26.58
2022-08-03T13:27:00.989Z,26.58
2022-08-03T13:29:48.430Z,26.50
2022-08-03T13:32:15.958Z,26.59
2022-08-03T13:34:43.496Z,26.61
2022-08-03T13:37:12.428Z,26.63
2022-08-03T13:39:58.055Z,26.60
2022-08-03T13:42:35.467Z,26.75
2022-08-03T13:45:04.338Z,26.61
2022-08-03T13:47:34.372Z,26.56
2022-08-03T13:50:03.068Z,26.52
2022-08-03T13:52:36.801Z,26.47
2022-08-03T13:55:06.352Z,26.31
2022-08-03T13:58:05.826Z,26.29
2022-08-03T14:00:28.585Z,26.26
2022-08-03T14:03:12.588Z,26.39
2022-08-03T14:05:42.209Z,26.18
2022-08-03T14:08:10.252Z,26.17
2022-08-03T14:10:40.488Z,26.26
2022-08-03T14:13:08.804Z,26.31
2022-08-03T14:15:37.294Z,26.26
2022-08-03T14:18:15.850Z,26.15
2022-08-03T14:20:56.346Z,26.09
2022-08-03T14:23:25.246Z,26.06
2022-08-03T14:25:53.157Z,26.05
2022-08-03T14:28:24.712Z,26.20
2022-08-03T14:30:53.297Z,26.10
2022-08-03T14:33:21.174Z,26.11
2022-08-03T14:35:49.164Z,26.13
2022-08-03T14:38:17.441Z,26.07
2022-08-03T14:40:45.132Z,26.04
2022-08-03T14:43:12.839Z,26.04
2022-08-03T14:45:40.872Z,26.02
2022-08-03T14:50:12.592Z,25.94
2022-08-03T14:50:57.880Z,25.88
2022-08-03T14:53:25.366Z,25.92
2022-08-03T14:55:53.683Z,25.86
2022-08-03T14:58:22.806Z,25.87
2022-08-03T15:00:51.977Z,25.88
2022-08-03T15:03:24.003Z,25.86
2022-08-03T15:05:56.416Z,25.80
2022-08-03T15:08:25.311Z,25.87
2022-08-03T15:10:54.497Z,25.75
2022-08-03T15:13:22.474Z,25.72
2022-08-03T15:15:50.232Z,25.66
2022-08-03T15:18:17.794Z,25.63
2022-08-03T15:20:46.690Z,25.61
2022-08-03T15:23:16.291Z,25.51
2022-08-03T15:26:29.454Z,25.53
2022-08-03T15:28:32.797Z,25.52
2022-08-03T15:31:01.370Z,25.47
2022-08-03T15:33:29.763Z,25.37
2022-08-03T15:35:57.518Z,25.39
2022-08-03T15:38:26.232Z,25.31
2022-08-03T15:40:55.590Z,25.30
2022-08-03T15:43:24.146Z,25.35
2022-08-03T15:46:12.803Z,25.26
2022-08-03T15:48:40.753Z,25.17
2022-08-03T15:51:09.259Z,25.12
2022-08-03T15:53:37.764Z,25.09
2022-08-03T15:56:11.318Z,25.02
2022-08-03T15:59:09.483Z,24.91
2022-08-03T16:01:30.077Z,24.80
2022-08-03T16:03:57.695Z,24.79
2022-08-03T16:06:34.660Z,24.69
2022-08-03T16:09:23.899Z,24.74
2022-08-03T16:11:56.251Z,24.65
2022-08-03T16:14:32.281Z,24.55
2022-08-03T16:17:04.277Z,24.56
2022-08-03T16:19:31.794Z,24.49
2022-08-03T16:21:59.356Z,24.51
2022-08-03T16:24:28.618Z,24.51
2022-08-03T16:26:57.050Z,24.47
2022-08-03T16:29:24.506Z,24.36
2022-08-03T16:31:52.692Z,24.36
2022-08-03T16:34:20.679Z,24.36
2022-08-03T16:36:48.250Z,24.28
2022-08-03T16:39:15.959Z,24.24
2022-08-03T16:41:54.029Z,24.17
2022-08-03T16:44:30.909Z,24.15
2022-08-03T16:46:59.721Z,24.04
2022-08-03T16:49:54.658Z,23.95
2022-08-03T16:52:16.757Z,23.88
2022-08-03T16:54:52.735Z,23.78
2022-08-03T16:57:55.680Z,23.85
2022-08-03T17:00:34.283Z,23.85
2022-08-03T17:03:04.365Z,23.82
2022-08-03T17:05:46.971Z,23.71
2022-08-03T17:08:16.384Z,23.66
2022-08-03T17:10:53.982Z,23.64
2022-08-03T17:13:22.880Z,23.47
2022-08-03T17:16:01.326Z,23.57
2022-08-03T17:18:35.649Z,23.45
2022-08-03T17:21:07.999Z,23.40
2022-08-03T17:23:57.625Z,23.36
2022-08-03T17:26:30.595Z,23.26
2022-08-03T17:29:12.932Z,23.39
2022-08-03T17:31:48.944Z,23.32
2022-08-03T17:34:18.720Z,23.27
2022-08-03T17:37:04.096Z,23.29
2022-08-03T17:39:57.738Z,23.22
2022-08-03T17:42:30.324Z,23.22
2022-08-03T17:45:02.119Z,23.14
2022-08-03T17:47:42.133Z,23.15
2022-08-03T17:50:24.539Z,23.21
2022-08-03T17:53:06.854Z,23.16
2022-08-03T17:55:55.232Z,22.99
2022-08-03T17:58:55.193Z,23.11
2022-08-03T18:02:00.769Z,22.94
2022-08-03T18:04:41.302Z,22.74
2022-08-03T18:07:12.625Z,22.72
2022-08-03T18:10:03.699Z,22.80
2022-08-03T18:12:51.890Z,22.87
2022-08-03T18:15:30.441Z,22.70
2022-08-03T18:18:10.377Z,22.68
2022-08-03T18:20:42.008Z,22.59
2022-08-03T18:23:20.651Z,22.53
2022-08-03T18:26:05.637Z,22.45
2022-08-03T18:28:35.862Z,22.29
2022-08-03T18:31:05.993Z,22.14
2022-08-03T18:34:20.037Z,21.94
2022-08-03T18:36:30.127Z,21.78
2022-08-03T18:39:02.990Z,21.65
2022-08-03T18:41:34.624Z,21.34
2022-08-03T18:44:37.243Z,21.39
2022-08-03T18:47:50.726Z,21.62
2022-08-03T18:50:30.576Z,21.49
2022-08-03T18:53:03.072Z,21.44
2022-08-03T18:55:33.751Z,21.46
2022-08-03T19:01:57.996Z,21.53
2022-08-03T19:04:25.300Z,21.19
2022-08-03T19:07:02.848Z,21.16
2022-08-03T19:09:49.580Z,21.11
2022-08-03T19:12:30.602Z,20.99
2022-08-03T19:15:05.942Z,20.98
2022-08-03T19:17:53.626Z,21.15
2022-08-03T19:20:25.060Z,20.96
2022-08-03T19:22:54.739Z,20.79
2022-08-03T19:25:34.534Z,20.69
2022-08-03T19:28:07.353Z,20.73
2022-08-03T19:33:29.941Z,20.94
2022-08-03T19:35:58.358Z,20.54
2022-08-03T19:41:18.023Z,20.42
2022-08-03T19:44:02.098Z,20.57
2022-08-03T19:46:37.833Z,20.47
2022-08-03T19:49:14.596Z,20.44
2022-08-03T19:51:59.041Z,20.37
2022-08-03T19:54:52.768Z,20.43
2022-08-03T19:57:25.006Z,20.37
2022-08-03T19:59:54.402Z,20.29
2022-08-03T20:02:27.125Z,20.28
2022-08-03T20:04:59.579Z,20.30
2022-08-03T20:07:48.437Z,20.29
2022-08-03T20:10:18.131Z,20.31
2022-08-03T20:12:47.581Z,20.25
2022-08-03T20:15:18.111Z,20.23
2022-08-03T20:17:54.882Z,20.27
2022-08-03T20:20:29.454Z,20.18
2022-08-03T20:22:59.513Z,20.23
2022-08-03T20:25:38.089Z,20.34
2022-08-03T20:28:15.073Z,20.40
2022-08-03T20:30:47.187Z,20.42
2022-08-03T20:33:18.818Z,20.24
2022-08-03T20:35:49.679Z,20.32
2022-08-03T20:38:20.379Z,20.41
2022-08-03T20:40:55.021Z,20.29
2022-08-03T20:43:26.764Z,20.28
2022-08-03T20:46:00.077Z,20.27
2022-08-03T20:48:43.475Z,20.20
2022-08-03T20:51:20.151Z,20.14
2022-08-03T20:54:09.659Z,20.14
2022-08-03T20:56:53.726Z,20.15
2022-08-03T20:59:21.686Z,20.15
2022-08-03T21:01:49.185Z,20.16
2022-08-03T21:04:20.947Z,20.20
2022-08-03T21:06:57.438Z,20.15
2022-08-03T21:09:33.478Z,20.17
2022-08-03T21:12:13.165Z,20.24
2022-08-03T21:13:02.596Z,20.40
2022-08-03T21:13:10.126Z,21.38
2022-08-03T21:13:10.907Z,20.75
2022-08-03T21:14:52.540Z,20.17
2022-08-03T21:17:39.216Z,20.12
2022-08-03T21:20:12.421Z,20.13
2022-08-03T21:22:44.087Z,20.06
2022-08-03T21:25:15.034Z,20.13
2022-08-03T21:27:42.551Z,20.05
2022-08-03T21:30:11.446Z,20.07
2022-08-03T21:32:40.681Z,20.00
2022-08-03T21:35:12.943Z,20.07
2022-08-03T21:37:41.885Z,19.97
2022-08-03T21:40:12.482Z,19.93
2022-08-03T21:42:41.703Z,19.94
2022-08-03T21:45:16.875Z,19.98
2022-08-03T21:47:46.046Z,19.91
2022-08-03T21:50:13.967Z,19.83
2022-08-03T21:52:45.308Z,19.78
2022-08-03T21:55:20.332Z,19.66
2022-08-03T21:57:53.316Z,19.67
2022-08-03T22:00:23.411Z,19.61
2022-08-03T22:02:57.166Z,19.58
2022-08-03T22:05:28.874Z,19.47
2022-08-03T22:08:13.112Z,19.54
2022-08-03T22:10:43.438Z,19.48
2022-08-03T22:13:13.283Z,19.56
2022-08-03T22:15:41.263Z,19.53
2022-08-03T22:18:09.599Z,19.52
2022-08-03T22:20:37.260Z,19.45
2022-08-03T22:23:06.850Z,19.47
2022-08-03T22:25:39.110Z,19.51
2022-08-03T22:28:10.309Z,19.48
2022-08-03T22:30:39.302Z,19.47
2022-08-03T22:33:11.208Z,19.53
2022-08-03T22:35:47.953Z,19.56
2022-08-03T22:38:18.311Z,19.50
2022-08-03T22:40:49.094Z,19.56
2022-08-03T22:43:17.290Z,19.49
2022-08-03T22:46:10.138Z,19.56
2022-08-03T22:48:41.029Z,19.53
2022-08-03T22:51:09.735Z,19.52
2022-08-03T22:53:38.745Z,19.52
2022-08-03T22:56:07.085Z,19.55
2022-08-03T22:58:34.551Z,19.41
2022-08-03T23:01:08.723Z,19.66
2022-08-03T23:04:01.221Z,19.66
2022-08-03T23:06:35.980Z,19.68
2022-08-03T23:09:10.098Z,19.69
2022-08-03T23:11:46.153Z,19.64
2022-08-03T23:14:16.888Z,19.61
2022-08-03T23:16:46.136Z,19.60
2022-08-03T23:19:17.149Z,19.59
2022-08-03T23:22:02.827Z,19.71
2022-08-03T23:24:35.990Z,19.66
2022-08-03T23:27:05.765Z,19.66
2022-08-03T23:29:38.769Z,19.68
2022-08-03T23:32:07.256Z,19.61
2022-08-03T23:34:53.492Z,19.63
2022-08-03T23:37:21.268Z,19.49
2022-08-03T23:39:49.351Z,19.61
2022-08-03T23:42:19.521Z,19.61
2022-08-03T23:44:47.388Z,19.60
2022-08-03T23:47:15.539Z,19.60
2022-08-03T23:49:43.191Z,19.59
2022-08-03T23:52:21.822Z,19.70
2022-08-03T23:55:15.156Z,19.70
2022-08-03T23:58:01.751Z,19.69
